sensor_id;sensor_type;location;lat;lon;timestamp;P1;durP1;ratioP1;P2;durP2;ratioP2
58338;SDS011;68636;52.704;6.536;2024-02-23T00:01:23;2.33;;;0.10;;
58338;SDS011;68636;52.704;6.536;2024-02-23T00:03:50;1.60;;;0.10;;
58338;SDS011;68636;52.704;6.536;2024-02-23T00:06:16;0.55;;;0.00;;
58338;SDS011;68636;52.704;6.536;2024-02-23T00:08:42;0.45;;;0.10;;
58338;SDS011;68636;52.704;6.536;2024-02-23T00:11:08;1.40;;;0.00;;
58338;SDS011;68636;52.704;6.536;2024-02-23T00:13:35;3.97;;;0.10;;
58338;SDS011;68636;52.704;6.536;2024-02-23T00:16:01;1.35;;;0.22;;
58338;SDS011;68636;52.704;6.536;2024-02-23T00:18:27;1.70;;;0.15;;
58338;SDS011;68636;52.704;6.536;2024-02-23T00:20:53;2.25;;;0.10;;
58338;SDS011;68636;52.704;6.536;2024-02-23T00:23:21;1.52;;;0.20;;
58338;SDS011;68636;52.704;6.536;2024-02-23T00:25:47;2.00;;;0.10;;
58338;SDS011;68636;52.704;6.536;2024-02-23T00:28:13;0.43;;;0.10;;
58338;SDS011;68636;52.704;6.536;2024-02-23T00:30:39;1.50;;;0.10;;
58338;SDS011;68636;52.704;6.536;2024-02-23T00:33:06;0.82;;;0.10;;
58338;SDS011;68636;52.704;6.536;2024-02-23T00:35:32;0.77;;;0.10;;
58338;SDS011;68636;52.704;6.536;2024-02-23T00:37:58;2.80;;;0.52;;
58338;SDS011;68636;52.704;6.536;2024-02-23T00:40:24;0.98;;;0.20;;
58338;SDS011;68636;52.704;6.536;2024-02-23T00:42:50;0.20;;;0.00;;
58338;SDS011;68636;52.704;6.536;2024-02-23T00:45:16;0.80;;;0.10;;
58338;SDS011;68636;52.704;6.536;2024-02-23T00:47:42;1.35;;;0.10;;
58338;SDS011;68636;52.704;6.536;2024-02-23T00:50:09;2.58;;;0.03;;
58338;SDS011;68636;52.704;6.536;2024-02-23T00:52:35;0.47;;;0.00;;
58338;SDS011;68636;52.704;6.536;2024-02-23T00:55:01;0.40;;;0.10;;
58338;SDS011;68636;52.704;6.536;2024-02-23T00:57:28;0.10;;;0.00;;
58338;SDS011;68636;52.704;6.536;2024-02-23T00:59:57;0.55;;;0.10;;
58338;SDS011;68636;52.704;6.536;2024-02-23T01:02:24;2.40;;;0.10;;
58338;SDS011;68636;52.704;6.536;2024-02-23T01:04:50;0.65;;;0.10;;
58338;SDS011;68636;52.704;6.536;2024-02-23T01:07:21;1.33;;;0.20;;
58338;SDS011;68636;52.704;6.536;2024-02-23T01:09:47;0.98;;;0.10;;
58338;SDS011;68636;52.704;6.536;2024-02-23T01:12:14;0.38;;;0.10;;
58338;SDS011;68636;52.704;6.536;2024-02-23T01:14:40;2.00;;;0.20;;
58338;SDS011;68636;52.704;6.536;2024-02-23T01:17:06;0.63;;;0.15;;
58338;SDS011;68636;52.704;6.536;2024-02-23T01:19:32;1.13;;;0.30;;
58338;SDS011;68636;52.704;6.536;2024-02-23T01:21:58;2.40;;;0.20;;
58338;SDS011;68636;52.704;6.536;2024-02-23T01:24:27;2.40;;;0.20;;
58338;SDS011;68636;52.704;6.536;2024-02-23T01:26:57;2.72;;;0.20;;
58338;SDS011;68636;52.704;6.536;2024-02-23T01:29:24;2.10;;;0.20;;
58338;SDS011;68636;52.704;6.536;2024-02-23T01:34:16;1.95;;;0.20;;
58338;SDS011;68636;52.704;6.536;2024-02-23T01:36:43;3.65;;;0.35;;
58338;SDS011;68636;52.704;6.536;2024-02-23T01:39:09;2.65;;;0.50;;
58338;SDS011;68636;52.704;6.536;2024-02-23T01:41:36;2.55;;;0.40;;
58338;SDS011;68636;52.704;6.536;2024-02-23T01:44:02;8.65;;;0.55;;
58338;SDS011;68636;52.704;6.536;2024-02-23T01:46:28;9.13;;;1.08;;
58338;SDS011;68636;52.704;6.536;2024-02-23T01:48:54;3.53;;;0.40;;
58338;SDS011;68636;52.704;6.536;2024-02-23T01:51:21;3.90;;;0.45;;
58338;SDS011;68636;52.704;6.536;2024-02-23T01:53:47;4.83;;;0.40;;
58338;SDS011;68636;52.704;6.536;2024-02-23T01:56:13;5.45;;;0.40;;
58338;SDS011;68636;52.704;6.536;2024-02-23T01:58:42;6.78;;;0.50;;
58338;SDS011;68636;52.704;6.536;2024-02-23T02:01:10;4.55;;;0.50;;
58338;SDS011;68636;52.704;6.536;2024-02-23T02:03:39;3.83;;;0.40;;
58338;SDS011;68636;52.704;6.536;2024-02-23T02:06:05;3.85;;;0.40;;
58338;SDS011;68636;52.704;6.536;2024-02-23T02:08:35;6.18;;;0.75;;
58338;SDS011;68636;52.704;6.536;2024-02-23T02:11:01;2.33;;;0.30;;
58338;SDS011;68636;52.704;6.536;2024-02-23T02:13:28;4.93;;;0.60;;
58338;SDS011;68636;52.704;6.536;2024-02-23T02:15:54;6.18;;;1.58;;
58338;SDS011;68636;52.704;6.536;2024-02-23T02:18:20;2.75;;;0.47;;
58338;SDS011;68636;52.704;6.536;2024-02-23T02:20:55;3.17;;;0.40;;
58338;SDS011;68636;52.704;6.536;2024-02-23T02:23:22;3.53;;;0.60;;
58338;SDS011;68636;52.704;6.536;2024-02-23T02:25:55;4.40;;;0.50;;
58338;SDS011;68636;52.704;6.536;2024-02-23T02:28:22;4.10;;;0.50;;
58338;SDS011;68636;52.704;6.536;2024-02-23T02:30:49;2.28;;;0.40;;
58338;SDS011;68636;52.704;6.536;2024-02-23T02:33:15;4.93;;;0.80;;
58338;SDS011;68636;52.704;6.536;2024-02-23T02:35:41;5.78;;;0.60;;
58338;SDS011;68636;52.704;6.536;2024-02-23T02:38:07;9.57;;;0.98;;
58338;SDS011;68636;52.704;6.536;2024-02-23T02:40:33;5.65;;;0.73;;
58338;SDS011;68636;52.704;6.536;2024-02-23T02:42:59;9.68;;;0.60;;
58338;SDS011;68636;52.704;6.536;2024-02-23T02:45:25;6.65;;;0.73;;
58338;SDS011;68636;52.704;6.536;2024-02-23T02:47:51;3.90;;;0.75;;
58338;SDS011;68636;52.704;6.536;2024-02-23T02:50:18;7.63;;;0.70;;
58338;SDS011;68636;52.704;6.536;2024-02-23T02:52:44;3.97;;;0.55;;
58338;SDS011;68636;52.704;6.536;2024-02-23T02:55:11;2.78;;;0.35;;
58338;SDS011;68636;52.704;6.536;2024-02-23T02:57:37;5.28;;;0.45;;
58338;SDS011;68636;52.704;6.536;2024-02-23T03:00:03;3.08;;;0.30;;
58338;SDS011;68636;52.704;6.536;2024-02-23T03:02:34;3.85;;;0.40;;
58338;SDS011;68636;52.704;6.536;2024-02-23T03:05:00;5.00;;;0.50;;
58338;SDS011;68636;52.704;6.536;2024-02-23T03:07:26;5.00;;;0.47;;
58338;SDS011;68636;52.704;6.536;2024-02-23T03:09:52;4.75;;;0.50;;
58338;SDS011;68636;52.704;6.536;2024-02-23T03:12:19;1.30;;;0.30;;
58338;SDS011;68636;52.704;6.536;2024-02-23T03:14:45;2.42;;;0.40;;
58338;SDS011;68636;52.704;6.536;2024-02-23T03:17:11;4.63;;;0.45;;
58338;SDS011;68636;52.704;6.536;2024-02-23T03:19:37;2.78;;;0.25;;
58338;SDS011;68636;52.704;6.536;2024-02-23T03:22:04;3.67;;;0.82;;
58338;SDS011;68636;52.704;6.536;2024-02-23T03:24:30;7.15;;;0.50;;
58338;SDS011;68636;52.704;6.536;2024-02-23T03:26:56;3.22;;;0.50;;
58338;SDS011;68636;52.704;6.536;2024-02-23T03:29:22;4.28;;;0.50;;
58338;SDS011;68636;52.704;6.536;2024-02-23T03:31:49;5.82;;;0.40;;
58338;SDS011;68636;52.704;6.536;2024-02-23T03:34:16;4.60;;;0.38;;
58338;SDS011;68636;52.704;6.536;2024-02-23T03:36:42;8.52;;;1.15;;
58338;SDS011;68636;52.704;6.536;2024-02-23T03:39:08;5.95;;;0.50;;
58338;SDS011;68636;52.704;6.536;2024-02-23T03:41:35;6.32;;;0.40;;
58338;SDS011;68636;52.704;6.536;2024-02-23T03:44:01;2.28;;;0.30;;
58338;SDS011;68636;52.704;6.536;2024-02-23T03:46:27;4.78;;;0.32;;
58338;SDS011;68636;52.704;6.536;2024-02-23T03:48:53;3.58;;;0.40;;
58338;SDS011;68636;52.704;6.536;2024-02-23T03:51:19;1.90;;;0.30;;
58338;SDS011;68636;52.704;6.536;2024-02-23T03:53:46;5.05;;;0.20;;
58338;SDS011;68636;52.704;6.536;2024-02-23T03:56:12;4.60;;;0.30;;
58338;SDS011;68636;52.704;6.536;2024-02-23T03:58:38;0.85;;;0.30;;
58338;SDS011;68636;52.704;6.536;2024-02-23T04:01:04;2.03;;;0.30;;
58338;SDS011;68636;52.704;6.536;2024-02-23T04:03:30;3.88;;;0.68;;
58338;SDS011;68636;52.704;6.536;2024-02-23T04:05:56;3.95;;;0.55;;
58338;SDS011;68636;52.704;6.536;2024-02-23T04:08:22;3.05;;;0.30;;
58338;SDS011;68636;52.704;6.536;2024-02-23T04:10:48;4.40;;;0.50;;
58338;SDS011;68636;52.704;6.536;2024-02-23T04:13:15;3.72;;;0.40;;
58338;SDS011;68636;52.704;6.536;2024-02-23T04:15:43;4.82;;;0.40;;
58338;SDS011;68636;52.704;6.536;2024-02-23T04:18:09;6.25;;;0.63;;
58338;SDS011;68636;52.704;6.536;2024-02-23T04:20:35;9.30;;;0.75;;
58338;SDS011;68636;52.704;6.536;2024-02-23T04:23:01;4.15;;;0.80;;
58338;SDS011;68636;52.704;6.536;2024-02-23T04:25:27;4.60;;;0.60;;
58338;SDS011;68636;52.704;6.536;2024-02-23T04:27:53;7.03;;;1.42;;
58338;SDS011;68636;52.704;6.536;2024-02-23T04:30:19;4.50;;;1.13;;
58338;SDS011;68636;52.704;6.536;2024-02-23T04:32:46;7.18;;;1.70;;
58338;SDS011;68636;52.704;6.536;2024-02-23T04:35:12;3.38;;;1.02;;
58338;SDS011;68636;52.704;6.536;2024-02-23T04:37:39;3.60;;;1.27;;
58338;SDS011;68636;52.704;6.536;2024-02-23T04:40:05;6.25;;;2.10;;
58338;SDS011;68636;52.704;6.536;2024-02-23T04:42:32;8.10;;;2.78;;
58338;SDS011;68636;52.704;6.536;2024-02-23T04:44:58;6.97;;;2.53;;
58338;SDS011;68636;52.704;6.536;2024-02-23T04:47:25;8.02;;;2.67;;
58338;SDS011;68636;52.704;6.536;2024-02-23T04:49:51;8.57;;;2.30;;
58338;SDS011;68636;52.704;6.536;2024-02-23T04:52:17;5.90;;;2.00;;
58338;SDS011;68636;52.704;6.536;2024-02-23T04:54:43;7.00;;;1.67;;
58338;SDS011;68636;52.704;6.536;2024-02-23T04:57:09;8.90;;;1.95;;
58338;SDS011;68636;52.704;6.536;2024-02-23T04:59:36;8.40;;;2.50;;
58338;SDS011;68636;52.704;6.536;2024-02-23T05:02:02;6.43;;;2.00;;
58338;SDS011;68636;52.704;6.536;2024-02-23T05:04:28;5.95;;;1.58;;
58338;SDS011;68636;52.704;6.536;2024-02-23T05:06:54;7.28;;;2.70;;
58338;SDS011;68636;52.704;6.536;2024-02-23T05:09:21;7.40;;;2.50;;
58338;SDS011;68636;52.704;6.536;2024-02-23T05:11:47;8.98;;;2.60;;
58338;SDS011;68636;52.704;6.536;2024-02-23T05:14:13;8.45;;;2.03;;
58338;SDS011;68636;52.704;6.536;2024-02-23T05:16:39;9.23;;;2.50;;
58338;SDS011;68636;52.704;6.536;2024-02-23T05:19:05;7.10;;;1.77;;
58338;SDS011;68636;52.704;6.536;2024-02-23T05:21:32;6.00;;;1.75;;
58338;SDS011;68636;52.704;6.536;2024-02-23T05:23:58;7.32;;;2.78;;
58338;SDS011;68636;52.704;6.536;2024-02-23T05:26:24;8.35;;;2.20;;
58338;SDS011;68636;52.704;6.536;2024-02-23T05:28:50;5.85;;;1.67;;
58338;SDS011;68636;52.704;6.536;2024-02-23T05:31:17;7.93;;;1.75;;
58338;SDS011;68636;52.704;6.536;2024-02-23T05:33:43;10.43;;;2.53;;
58338;SDS011;68636;52.704;6.536;2024-02-23T05:36:09;11.25;;;2.72;;
58338;SDS011;68636;52.704;6.536;2024-02-23T05:38:36;8.77;;;2.35;;
58338;SDS011;68636;52.704;6.536;2024-02-23T05:41:02;7.85;;;1.92;;
58338;SDS011;68636;52.704;6.536;2024-02-23T05:43:30;8.07;;;1.85;;
58338;SDS011;68636;52.704;6.536;2024-02-23T05:45:56;6.18;;;1.88;;
58338;SDS011;68636;52.704;6.536;2024-02-23T05:48:23;9.38;;;2.08;;
58338;SDS011;68636;52.704;6.536;2024-02-23T05:50:49;8.20;;;1.92;;
58338;SDS011;68636;52.704;6.536;2024-02-23T05:53:16;7.70;;;2.30;;
58338;SDS011;68636;52.704;6.536;2024-02-23T05:55:42;12.02;;;2.13;;
58338;SDS011;68636;52.704;6.536;2024-02-23T05:58:08;8.02;;;1.75;;
58338;SDS011;68636;52.704;6.536;2024-02-23T06:00:34;7.90;;;2.20;;
58338;SDS011;68636;52.704;6.536;2024-02-23T06:03:00;8.43;;;2.20;;
58338;SDS011;68636;52.704;6.536;2024-02-23T06:05:26;5.97;;;2.05;;
58338;SDS011;68636;52.704;6.536;2024-02-23T06:07:52;4.15;;;1.40;;
58338;SDS011;68636;52.704;6.536;2024-02-23T06:10:19;8.52;;;1.63;;
58338;SDS011;68636;52.704;6.536;2024-02-23T06:12:45;6.40;;;1.85;;
58338;SDS011;68636;52.704;6.536;2024-02-23T06:15:15;8.73;;;2.42;;
58338;SDS011;68636;52.704;6.536;2024-02-23T06:17:41;10.32;;;2.60;;
58338;SDS011;68636;52.704;6.536;2024-02-23T06:20:07;6.35;;;1.15;;
58338;SDS011;68636;52.704;6.536;2024-02-23T06:22:34;6.30;;;1.85;;
58338;SDS011;68636;52.704;6.536;2024-02-23T06:25:02;9.60;;;2.17;;
58338;SDS011;68636;52.704;6.536;2024-02-23T06:27:28;8.15;;;2.08;;
58338;SDS011;68636;52.704;6.536;2024-02-23T06:29:55;8.55;;;1.98;;
58338;SDS011;68636;52.704;6.536;2024-02-23T06:32:21;7.75;;;2.30;;
58338;SDS011;68636;52.704;6.536;2024-02-23T06:34:47;4.35;;;1.40;;
58338;SDS011;68636;52.704;6.536;2024-02-23T06:37:13;7.47;;;1.83;;
58338;SDS011;68636;52.704;6.536;2024-02-23T06:39:39;9.40;;;1.70;;
58338;SDS011;68636;52.704;6.536;2024-02-23T06:42:05;5.30;;;1.65;;
58338;SDS011;68636;52.704;6.536;2024-02-23T06:44:32;10.30;;;2.30;;
58338;SDS011;68636;52.704;6.536;2024-02-23T06:46:58;8.18;;;2.40;;
58338;SDS011;68636;52.704;6.536;2024-02-23T06:49:24;5.47;;;2.10;;
58338;SDS011;68636;52.704;6.536;2024-02-23T06:51:50;8.23;;;2.08;;
58338;SDS011;68636;52.704;6.536;2024-02-23T06:54:16;6.10;;;1.42;;
58338;SDS011;68636;52.704;6.536;2024-02-23T06:56:43;12.73;;;2.25;;
58338;SDS011;68636;52.704;6.536;2024-02-23T06:59:10;5.03;;;1.58;;
58338;SDS011;68636;52.704;6.536;2024-02-23T07:01:36;9.15;;;1.83;;
58338;SDS011;68636;52.704;6.536;2024-02-23T07:04:12;4.73;;;1.40;;
58338;SDS011;68636;52.704;6.536;2024-02-23T07:06:39;5.05;;;1.30;;
58338;SDS011;68636;52.704;6.536;2024-02-23T07:09:05;6.55;;;1.48;;
58338;SDS011;68636;52.704;6.536;2024-02-23T07:11:31;7.75;;;1.50;;
58338;SDS011;68636;52.704;6.536;2024-02-23T07:13:57;5.05;;;1.10;;
58338;SDS011;68636;52.704;6.536;2024-02-23T07:16:23;5.55;;;1.77;;
58338;SDS011;68636;52.704;6.536;2024-02-23T07:18:49;5.70;;;1.00;;
58338;SDS011;68636;52.704;6.536;2024-02-23T07:21:18;8.85;;;1.55;;
58338;SDS011;68636;52.704;6.536;2024-02-23T07:23:44;4.63;;;1.20;;
58338;SDS011;68636;52.704;6.536;2024-02-23T07:26:11;8.63;;;1.08;;
58338;SDS011;68636;52.704;6.536;2024-02-23T07:28:37;5.32;;;0.80;;
58338;SDS011;68636;52.704;6.536;2024-02-23T07:31:03;6.68;;;1.15;;
58338;SDS011;68636;52.704;6.536;2024-02-23T07:33:29;5.07;;;0.85;;
58338;SDS011;68636;52.704;6.536;2024-02-23T07:35:55;8.10;;;1.25;;
58338;SDS011;68636;52.704;6.536;2024-02-23T07:38:21;6.72;;;0.95;;
58338;SDS011;68636;52.704;6.536;2024-02-23T07:40:48;7.22;;;0.93;;
58338;SDS011;68636;52.704;6.536;2024-02-23T07:43:17;5.68;;;0.88;;
58338;SDS011;68636;52.704;6.536;2024-02-23T07:45:43;4.85;;;0.73;;
58338;SDS011;68636;52.704;6.536;2024-02-23T07:48:09;4.60;;;0.77;;
58338;SDS011;68636;52.704;6.536;2024-02-23T07:50:36;4.82;;;0.85;;
58338;SDS011;68636;52.704;6.536;2024-02-23T07:53:02;3.75;;;0.50;;
58338;SDS011;68636;52.704;6.536;2024-02-23T07:55:29;5.22;;;0.60;;
58338;SDS011;68636;52.704;6.536;2024-02-23T07:57:55;3.85;;;0.50;;
58338;SDS011;68636;52.704;6.536;2024-02-23T08:00:26;7.18;;;0.95;;
58338;SDS011;68636;52.704;6.536;2024-02-23T08:02:52;6.03;;;0.90;;
58338;SDS011;68636;52.704;6.536;2024-02-23T08:05:21;6.95;;;0.70;;
58338;SDS011;68636;52.704;6.536;2024-02-23T08:07:49;5.38;;;0.75;;
58338;SDS011;68636;52.704;6.536;2024-02-23T08:10:15;5.05;;;1.00;;
58338;SDS011;68636;52.704;6.536;2024-02-23T08:12:41;5.68;;;0.82;;
58338;SDS011;68636;52.704;6.536;2024-02-23T08:15:07;3.95;;;0.85;;
58338;SDS011;68636;52.704;6.536;2024-02-23T08:17:33;4.67;;;0.70;;
58338;SDS011;68636;52.704;6.536;2024-02-23T08:19:59;4.15;;;0.50;;
58338;SDS011;68636;52.704;6.536;2024-02-23T08:22:26;5.07;;;0.50;;
58338;SDS011;68636;52.704;6.536;2024-02-23T08:24:52;3.53;;;0.60;;
58338;SDS011;68636;52.704;6.536;2024-02-23T08:27:18;6.22;;;0.70;;
58338;SDS011;68636;52.704;6.536;2024-02-23T08:29:44;5.38;;;0.70;;
58338;SDS011;68636;52.704;6.536;2024-02-23T08:32:10;7.32;;;0.93;;
58338;SDS011;68636;52.704;6.536;2024-02-23T08:37:03;6.00;;;0.43;;
58338;SDS011;68636;52.704;6.536;2024-02-23T08:39:30;4.15;;;0.50;;
58338;SDS011;68636;52.704;6.536;2024-02-23T08:41:56;2.35;;;0.40;;
58338;SDS011;68636;52.704;6.536;2024-02-23T08:44:22;4.22;;;0.40;;
58338;SDS011;68636;52.704;6.536;2024-02-23T08:46:48;3.60;;;0.50;;
58338;SDS011;68636;52.704;6.536;2024-02-23T08:49:14;3.72;;;0.50;;
58338;SDS011;68636;52.704;6.536;2024-02-23T08:51:40;5.07;;;0.60;;
58338;SDS011;68636;52.704;6.536;2024-02-23T08:54:06;5.95;;;0.52;;
58338;SDS011;68636;52.704;6.536;2024-02-23T08:56:36;3.33;;;0.30;;
58338;SDS011;68636;52.704;6.536;2024-02-23T08:59:04;4.43;;;0.47;;
58338;SDS011;68636;52.704;6.536;2024-02-23T09:01:30;4.10;;;0.70;;
58338;SDS011;68636;52.704;6.536;2024-02-23T09:03:56;3.08;;;0.40;;
58338;SDS011;68636;52.704;6.536;2024-02-23T09:06:22;5.43;;;0.38;;
58338;SDS011;68636;52.704;6.536;2024-02-23T09:08:48;2.13;;;0.40;;
58338;SDS011;68636;52.704;6.536;2024-02-23T09:11:14;5.65;;;0.90;;
58338;SDS011;68636;52.704;6.536;2024-02-23T09:13:41;3.13;;;0.50;;
58338;SDS011;68636;52.704;6.536;2024-02-23T09:16:07;3.30;;;0.30;;
58338;SDS011;68636;52.704;6.536;2024-02-23T09:18:34;3.45;;;0.40;;
58338;SDS011;68636;52.704;6.536;2024-02-23T09:21:00;6.20;;;0.70;;
58338;SDS011;68636;52.704;6.536;2024-02-23T09:23:26;2.28;;;0.30;;
58338;SDS011;68636;52.704;6.536;2024-02-23T09:25:52;4.97;;;0.40;;
58338;SDS011;68636;52.704;6.536;2024-02-23T09:28:18;5.35;;;0.40;;
58338;SDS011;68636;52.704;6.536;2024-02-23T09:30:45;6.78;;;0.50;;
58338;SDS011;68636;52.704;6.536;2024-02-23T09:33:11;5.25;;;0.38;;
58338;SDS011;68636;52.704;6.536;2024-02-23T09:35:37;3.33;;;0.40;;
58338;SDS011;68636;52.704;6.536;2024-02-23T09:38:04;3.53;;;0.50;;
58338;SDS011;68636;52.704;6.536;2024-02-23T09:40:30;4.13;;;0.73;;
58338;SDS011;68636;52.704;6.536;2024-02-23T09:42:56;3.80;;;0.40;;
58338;SDS011;68636;52.704;6.536;2024-02-23T09:45:26;5.43;;;0.50;;
58338;SDS011;68636;52.704;6.536;2024-02-23T09:47:54;3.83;;;0.35;;
58338;SDS011;68636;52.704;6.536;2024-02-23T09:50:25;2.63;;;0.38;;
58338;SDS011;68636;52.704;6.536;2024-02-23T09:52:51;9.23;;;0.60;;
58338;SDS011;68636;52.704;6.536;2024-02-23T09:55:17;3.33;;;0.30;;
58338;SDS011;68636;52.704;6.536;2024-02-23T09:57:44;9.10;;;0.50;;
58338;SDS011;68636;52.704;6.536;2024-02-23T10:02:37;6.22;;;0.47;;
58338;SDS011;68636;52.704;6.536;2024-02-23T10:05:03;5.20;;;0.50;;
58338;SDS011;68636;52.704;6.536;2024-02-23T10:07:29;5.28;;;0.55;;
58338;SDS011;68636;52.704;6.536;2024-02-23T10:09:55;3.03;;;0.40;;
58338;SDS011;68636;52.704;6.536;2024-02-23T10:12:23;4.15;;;0.40;;
58338;SDS011;68636;52.704;6.536;2024-02-23T10:14:49;4.25;;;0.50;;
58338;SDS011;68636;52.704;6.536;2024-02-23T10:17:15;2.22;;;0.25;;
58338;SDS011;68636;52.704;6.536;2024-02-23T10:19:41;4.85;;;0.50;;
58338;SDS011;68636;52.704;6.536;2024-02-23T10:22:07;3.58;;;0.50;;
58338;SDS011;68636;52.704;6.536;2024-02-23T10:24:33;2.35;;;0.50;;
58338;SDS011;68636;52.704;6.536;2024-02-23T10:27:00;3.42;;;0.30;;
58338;SDS011;68636;52.704;6.536;2024-02-23T10:29:27;3.10;;;0.30;;
58338;SDS011;68636;52.704;6.536;2024-02-23T10:31:53;2.22;;;0.20;;
58338;SDS011;68636;52.704;6.536;2024-02-23T10:34:21;5.25;;;0.60;;
58338;SDS011;68636;52.704;6.536;2024-02-23T10:36:47;4.82;;;0.50;;
58338;SDS011;68636;52.704;6.536;2024-02-23T10:39:16;4.47;;;0.40;;
58338;SDS011;68636;52.704;6.536;2024-02-23T10:42:06;3.05;;;0.20;;
58338;SDS011;68636;52.704;6.536;2024-02-23T10:44:31;3.97;;;0.40;;
58338;SDS011;68636;52.704;6.536;2024-02-23T10:47:00;5.10;;;0.30;;
58338;SDS011;68636;52.704;6.536;2024-02-23T10:49:28;5.32;;;0.70;;
58338;SDS011;68636;52.704;6.536;2024-02-23T10:51:54;7.80;;;0.50;;
58338;SDS011;68636;52.704;6.536;2024-02-23T10:54:21;5.60;;;0.85;;
58338;SDS011;68636;52.704;6.536;2024-02-23T10:56:48;3.25;;;0.30;;
58338;SDS011;68636;52.704;6.536;2024-02-23T10:59:14;2.58;;;0.40;;
58338;SDS011;68636;52.704;6.536;2024-02-23T11:01:45;4.07;;;0.60;;
58338;SDS011;68636;52.704;6.536;2024-02-23T11:04:12;1.73;;;0.22;;
58338;SDS011;68636;52.704;6.536;2024-02-23T11:06:39;2.45;;;0.40;;
58338;SDS011;68636;52.704;6.536;2024-02-23T11:09:06;8.02;;;0.40;;
58338;SDS011;68636;52.704;6.536;2024-02-23T11:11:33;5.75;;;0.40;;
58338;SDS011;68636;52.704;6.536;2024-02-23T11:14:02;3.22;;;0.30;;
58338;SDS011;68636;52.704;6.536;2024-02-23T11:16:28;1.98;;;0.65;;
58338;SDS011;68636;52.704;6.536;2024-02-23T11:19:04;7.00;;;0.60;;
58338;SDS011;68636;52.704;6.536;2024-02-23T11:21:35;4.25;;;0.45;;
58338;SDS011;68636;52.704;6.536;2024-02-23T11:24:02;2.65;;;0.35;;
58338;SDS011;68636;52.704;6.536;2024-02-23T11:26:29;3.33;;;0.50;;
58338;SDS011;68636;52.704;6.536;2024-02-23T11:28:55;2.50;;;0.40;;
58338;SDS011;68636;52.704;6.536;2024-02-23T11:31:24;4.00;;;0.40;;
58338;SDS011;68636;52.704;6.536;2024-02-23T11:33:52;4.95;;;0.50;;
58338;SDS011;68636;52.704;6.536;2024-02-23T11:36:28;6.28;;;0.50;;
58338;SDS011;68636;52.704;6.536;2024-02-23T11:38:54;5.75;;;0.50;;
58338;SDS011;68636;52.704;6.536;2024-02-23T11:41:22;4.53;;;0.50;;
58338;SDS011;68636;52.704;6.536;2024-02-23T11:43:51;4.10;;;0.40;;
58338;SDS011;68636;52.704;6.536;2024-02-23T11:46:23;4.30;;;0.35;;
58338;SDS011;68636;52.704;6.536;2024-02-23T11:48:49;1.75;;;0.20;;
58338;SDS011;68636;52.704;6.536;2024-02-23T11:51:38;2.60;;;0.40;;
58338;SDS011;68636;52.704;6.536;2024-02-23T11:54:04;4.80;;;0.50;;
58338;SDS011;68636;52.704;6.536;2024-02-23T11:56:30;4.45;;;0.40;;
58338;SDS011;68636;52.704;6.536;2024-02-23T11:58:56;1.70;;;0.43;;
58338;SDS011;68636;52.704;6.536;2024-02-23T12:01:22;3.83;;;0.50;;
58338;SDS011;68636;52.704;6.536;2024-02-23T12:03:48;4.72;;;0.50;;
58338;SDS011;68636;52.704;6.536;2024-02-23T12:06:15;3.55;;;0.60;;
58338;SDS011;68636;52.704;6.536;2024-02-23T12:08:41;5.23;;;0.70;;
58338;SDS011;68636;52.704;6.536;2024-02-23T12:11:09;3.63;;;0.60;;
58338;SDS011;68636;52.704;6.536;2024-02-23T12:13:39;5.30;;;0.70;;
58338;SDS011;68636;52.704;6.536;2024-02-23T12:16:07;4.97;;;0.50;;
58338;SDS011;68636;52.704;6.536;2024-02-23T12:18:34;3.40;;;0.60;;
58338;SDS011;68636;52.704;6.536;2024-02-23T12:21:01;3.20;;;0.43;;
58338;SDS011;68636;52.704;6.536;2024-02-23T12:23:37;4.35;;;0.65;;
58338;SDS011;68636;52.704;6.536;2024-02-23T12:26:03;3.08;;;0.55;;
58338;SDS011;68636;52.704;6.536;2024-02-23T12:28:30;8.05;;;0.60;;
58338;SDS011;68636;52.704;6.536;2024-02-23T12:31:02;2.83;;;0.47;;
58338;SDS011;68636;52.704;6.536;2024-02-23T12:33:29;5.88;;;0.82;;
58338;SDS011;68636;52.704;6.536;2024-02-23T12:35:57;3.63;;;0.60;;
58338;SDS011;68636;52.704;6.536;2024-02-23T12:38:24;2.67;;;0.60;;
58338;SDS011;68636;52.704;6.536;2024-02-23T12:40:51;7.20;;;0.70;;
58338;SDS011;68636;52.704;6.536;2024-02-23T12:43:17;3.28;;;0.43;;
58338;SDS011;68636;52.704;6.536;2024-02-23T12:45:47;3.20;;;0.50;;
58338;SDS011;68636;52.704;6.536;2024-02-23T12:48:16;2.97;;;0.43;;
58338;SDS011;68636;52.704;6.536;2024-02-23T12:50:43;4.93;;;0.50;;
58338;SDS011;68636;52.704;6.536;2024-02-23T12:53:31;2.60;;;0.47;;
58338;SDS011;68636;52.704;6.536;2024-02-23T12:56:05;4.43;;;0.50;;
58338;SDS011;68636;52.704;6.536;2024-02-23T12:58:33;4.70;;;0.50;;
58338;SDS011;68636;52.704;6.536;2024-02-23T13:00:59;2.17;;;0.52;;
58338;SDS011;68636;52.704;6.536;2024-02-23T13:03:25;1.95;;;0.50;;
58338;SDS011;68636;52.704;6.536;2024-02-23T13:05:52;5.00;;;0.93;;
58338;SDS011;68636;52.704;6.536;2024-02-23T13:08:18;2.67;;;0.50;;
58338;SDS011;68636;52.704;6.536;2024-02-23T13:10:45;2.28;;;0.40;;
58338;SDS011;68636;52.704;6.536;2024-02-23T13:13:11;3.05;;;0.40;;
58338;SDS011;68636;52.704;6.536;2024-02-23T13:15:40;2.35;;;0.40;;
58338;SDS011;68636;52.704;6.536;2024-02-23T13:18:07;3.75;;;0.98;;
58338;SDS011;68636;52.704;6.536;2024-02-23T13:20:33;4.40;;;0.63;;
58338;SDS011;68636;52.704;6.536;2024-02-23T13:22:59;5.00;;;0.50;;
58338;SDS011;68636;52.704;6.536;2024-02-23T13:25:27;3.15;;;0.95;;
58338;SDS011;68636;52.704;6.536;2024-02-23T13:27:53;4.45;;;0.50;;
58338;SDS011;68636;52.704;6.536;2024-02-23T13:30:19;3.88;;;0.70;;
58338;SDS011;68636;52.704;6.536;2024-02-23T13:32:45;4.28;;;0.50;;
58338;SDS011;68636;52.704;6.536;2024-02-23T13:35:12;3.20;;;0.40;;
58338;SDS011;68636;52.704;6.536;2024-02-23T13:37:39;2.22;;;0.50;;
58338;SDS011;68636;52.704;6.536;2024-02-23T13:40:06;5.72;;;0.73;;
58338;SDS011;68636;52.704;6.536;2024-02-23T13:42:34;1.95;;;0.40;;
58338;SDS011;68636;52.704;6.536;2024-02-23T13:45:00;3.13;;;0.57;;
58338;SDS011;68636;52.704;6.536;2024-02-23T13:47:26;3.35;;;0.73;;
58338;SDS011;68636;52.704;6.536;2024-02-23T13:49:53;4.97;;;0.70;;
58338;SDS011;68636;52.704;6.536;2024-02-23T13:52:19;4.85;;;0.50;;
58338;SDS011;68636;52.704;6.536;2024-02-23T13:54:45;5.32;;;0.73;;
58338;SDS011;68636;52.704;6.536;2024-02-23T13:57:11;2.42;;;0.40;;
58338;SDS011;68636;52.704;6.536;2024-02-23T13:59:37;6.45;;;0.70;;
58338;SDS011;68636;52.704;6.536;2024-02-23T14:02:03;5.47;;;1.38;;
58338;SDS011;68636;52.704;6.536;2024-02-23T14:04:29;2.08;;;0.50;;
58338;SDS011;68636;52.704;6.536;2024-02-23T14:06:55;3.67;;;0.40;;
58338;SDS011;68636;52.704;6.536;2024-02-23T14:09:22;5.07;;;0.55;;
58338;SDS011;68636;52.704;6.536;2024-02-23T14:11:48;3.97;;;0.50;;
58338;SDS011;68636;52.704;6.536;2024-02-23T14:14:14;3.30;;;0.40;;
58338;SDS011;68636;52.704;6.536;2024-02-23T14:16:40;5.03;;;0.40;;
58338;SDS011;68636;52.704;6.536;2024-02-23T14:19:06;1.67;;;0.40;;
58338;SDS011;68636;52.704;6.536;2024-02-23T14:21:32;6.22;;;0.57;;
58338;SDS011;68636;52.704;6.536;2024-02-23T14:24:01;3.92;;;0.50;;
58338;SDS011;68636;52.704;6.536;2024-02-23T14:26:27;5.00;;;0.50;;
58338;SDS011;68636;52.704;6.536;2024-02-23T14:28:53;3.53;;;0.85;;
58338;SDS011;68636;52.704;6.536;2024-02-23T14:31:19;4.18;;;0.50;;
58338;SDS011;68636;52.704;6.536;2024-02-23T14:33:45;5.38;;;0.50;;
58338;SDS011;68636;52.704;6.536;2024-02-23T14:36:15;5.15;;;0.70;;
58338;SDS011;68636;52.704;6.536;2024-02-23T14:38:42;5.95;;;0.65;;
58338;SDS011;68636;52.704;6.536;2024-02-23T14:41:08;2.75;;;0.60;;
58338;SDS011;68636;52.704;6.536;2024-02-23T14:43:35;3.17;;;0.50;;
58338;SDS011;68636;52.704;6.536;2024-02-23T14:46:01;3.97;;;0.60;;
58338;SDS011;68636;52.704;6.536;2024-02-23T14:48:27;2.53;;;0.40;;
58338;SDS011;68636;52.704;6.536;2024-02-23T14:50:53;5.60;;;1.25;;
58338;SDS011;68636;52.704;6.536;2024-02-23T14:53:20;4.28;;;0.50;;